Amador City, CA

3:14 AM PDT on September 22, 2014 (GMT -0700)
Downtown | Change Station
CLOSE
Current Station
Personal Weather Station
Location: Plymouth, CA
Elevation: 1093 ft
Nearby Weather Stations

Elev 1093 ft 38.48 °N, 120.84 °W | Updated 3 minutes ago

Partly Cloudy
Partly Cloudy
53.2 °F
Feels Like 53.2 °F
N
2.0
Wind Variable Wind from NE
Gusts 2.0 mph

Today
High -- | Low -- °F
--% Chance of Precip.
Yesterday
High -- | Low -- °F
Precip. -- in
6:51 AM 7:00 PM
Waning Crescent, 3% visible
Pressure 30.05 in
Visibility 10.0 miles
Clouds Overcast 7500 ft
Dew Point 53 °F
Humidity 99%
Rainfall 0.00 in
Snow Depth 0 in
UV 0 out of 12
Pollen 5.20 out of 12
Ozone Good
Flu Activity Not available.
METAR KPVF 220955Z AUTO 08007KT 10SM OVC075 19/06 A3005 RMK AO1

More Conditions Fewer Conditions

Pressure 30.05 in
Visibility 10.0 miles
Clouds Overcast 7500 ft
Dew Point 53 °F
Humidity 99%
Rainfall 0.00 in
Snow Depth 0 in
UV 0 out of 12
Pollen 5.20 out of 12
Ozone Good
Flu Activity Not available.
METAR KPVF 220955Z AUTO 08007KT 10SM OVC075 19/06 A3005 RMK AO1

More Conditions Fewer Conditions

10-Day Weather Forecast

Almanac

Astronomy

Sep. 22, 2014 Rise Set
Actual Time 6:51 AM PDT 7:00 PM PDT
Civil Twilight 6:24 AM PDT 7:26 PM PDT
Nautical Twilight 5:53 AM PDT 7:57 PM PDT
Astronomical Twilight 5:22 AM PDT 8:28 PM PDT
Moon 5:25 AM PDT 6:10 PM PDT
Length of Visible Light 13h 01m
Length of Day
12h 09m
Tomorrow will be 2m 28s shorter.
Waning Crescent, 3% of the Moon is Illuminated
Today
Waning Crescent
Sep 24
New
Oct 1
First Quarter
Oct 8
Full
Oct 15
Last Quarter

Today's Extremes

State Highs State Lows

Community

WunderPhotos

Upload Photos

1,755,404 photos uploaded!

Nearby

Air Quality

  Air Quality AQ Index Pollutant
Yesterday Good
OZONE
Current Good
OZONE
Monday Good
OZONE
Tuesday Good
OZONE
Wednesday Good
OZONE
Thursday Good
OZONE
Friday Good
OZONE

Snow Depth

Station Depth Elevation
Leavitt Meadows 1 in 7200 ft
Independence Camp 0 in 7000 ft
Heavenly Valley 0 in 8850 ft
Leavitt Lake 1 in 9400 ft
Horse Meadow 0 in 8631 ft

Earthquake Activity

City Distance Mag. Time & Date
Sonoma, California 84 miles 2.7 1:17 PM PDT
2014-09-21
Livermore, California 70 miles 2.6 3:37 AM PDT
2014-09-19
Minimum magnitude displayed is 2.5.

Coastal Water Temperatures

Place Temperature
No Stations Reporting

Nearby Weather Stations